»·PEaware :: JBU5241 KPDX-KJAC

JBU5241 :: KPDX-KJAC

FLIGHT INFORMATION

Flight Status: Arrived
Operator:
JetBlue Airways
More flights by this operator :: More flights under this callsign
Pilot: Ruben R. (12247)
Aircraft: AIRBUS A320
(A320)
More flights by this aircraft type
Origin: KPDX Portland Intl
United States
Destination: KJAC Jackson Hole
United States
More flights between these airports :: More routes between these airports
Route: +LAVAA6 PDT DNJ DBS V298 QUIRT
File this flight plan on PilotEdge
Remarks: TWITCH.TV / THEMACH3LOUNGE
Altitude:
(Current/Filed)
37,000ft
Speed:
(Current/Filed)
450kts
Departed: 07-Dec-17 09:52 AM
Arrived: 07-Dec-17 11:29 AM
Distance/Time
Traveled:
520nm/1:37
Distance/Time
To Go:
Arrived

Flight Plot

Page will automatically refresh every two minutes.

Flight plan parsing failed; only flown route is shown


Map Options




Map Legend


Flown Route
Filed Route
Departure Airport
Arrival Airport
Navaid (VOR, NDB)
Fix

Horizontal Profiles

Position Reports

Time Latitude Longitude Heading Altitude Ground
Speed
07-Dec-17 09:28 45.589225 -122.595821 208 38ft 0kts
07-Dec-17 09:29 45.589225 -122.595821 208 38ft 0kts
07-Dec-17 09:30 45.589225 -122.595821 208 38ft 0kts
07-Dec-17 09:31 45.589225 -122.595821 208 38ft 0kts
07-Dec-17 09:32 45.589225 -122.595821 208 38ft 0kts
07-Dec-17 09:33 45.589225 -122.595821 208 38ft 0kts
07-Dec-17 09:34 45.589225 -122.595821 208 38ft 0kts
07-Dec-17 09:35 45.589225 -122.595821 208 38ft 0kts
07-Dec-17 09:36 45.589225 -122.595821 208 38ft 0kts
07-Dec-17 09:37 45.589225 -122.595821 209 38ft 0kts
07-Dec-17 09:38 45.589225 -122.595821 209 38ft 0kts
07-Dec-17 09:39 45.589225 -122.595821 209 38ft 0kts
07-Dec-17 09:40 45.589225 -122.595821 208 38ft 0kts
07-Dec-17 09:41 45.589225 -122.595821 209 38ft 0kts
07-Dec-17 09:41 45.589225 -122.595821 208 38ft 0kts
07-Dec-17 09:43 45.589225 -122.595821 208 38ft 0kts
07-Dec-17 09:44 45.589232 -122.595817 232 38ft 0kts
07-Dec-17 09:45 45.589675 -122.595454 230 38ft 1kts
07-Dec-17 09:46 45.589663 -122.594887 297 38ft 1kts
07-Dec-17 09:47 45.589539 -122.594514 290 38ft 0kts
07-Dec-17 09:48 45.589554 -122.594417 183 38ft 0kts
07-Dec-17 09:48 45.589604 -122.594497 103 38ft 0kts
07-Dec-17 09:50 45.589604 -122.594497 103 38ft 0kts
07-Dec-17 09:50 45.589603 -122.594490 104 38ft 0kts
07-Dec-17 09:51 45.591113 -122.598815 297 38ft 0kts
07-Dec-17 09:52 45.592331 -122.598232 33 38ft 8kts
07-Dec-17 09:53 45.593782 -122.596307 37 38ft 0kts
07-Dec-17 09:54 45.593782 -122.596307 37 38ft 0kts
07-Dec-17 09:55 45.593782 -122.596307 37 38ft 0kts
07-Dec-17 09:56 45.593819 -122.596202 73 38ft 0kts
07-Dec-17 09:57 45.593018 -122.590837 117 38ft 66kts
07-Dec-17 09:58 45.581831 -122.555534 99 2078ft 114kts
07-Dec-17 09:59 45.571971 -122.495955 105 3745ft 206kts
07-Dec-17 10:00 45.555763 -122.405528 109 6579ft 251kts
07-Dec-17 10:01 45.552043 -122.308543 59 9016ft 287kts
07-Dec-17 10:02 45.607484 -122.222756 50 11406ft 310kts
07-Dec-17 10:03 45.661921 -122.118536 68 12648ft 352kts
07-Dec-17 10:04 45.704533 -121.986372 68 13980ft 381kts
07-Dec-17 10:05 45.745518 -121.847399 84 15714ft 385kts
07-Dec-17 10:06 45.745880 -121.694459 92 17276ft 391kts
07-Dec-17 10:07 45.744969 -121.537349 92 18730ft 399kts
07-Dec-17 10:08 45.743821 -121.378242 92 20109ft 405kts
07-Dec-17 10:09 45.742454 -121.220050 93 21365ft 410kts
07-Dec-17 10:10 45.740809 -121.056478 93 22537ft 416kts
07-Dec-17 10:11 45.738901 -120.890529 93 23637ft 421kts
07-Dec-17 10:12 45.736724 -120.722582 93 24611ft 426kts
07-Dec-17 10:13 45.734268 -120.552507 92 25490ft 432kts
07-Dec-17 10:14 45.731538 -120.381062 92 26303ft 437kts
07-Dec-17 10:15 45.728637 -120.214333 93 27046ft 442kts
07-Dec-17 10:16 45.725335 -120.039525 93 27731ft 447kts
07-Dec-17 10:17 45.721706 -119.861773 93 28454ft 448kts
07-Dec-17 10:18 45.718046 -119.691990 89 30422ft 416kts
07-Dec-17 10:19 45.714057 -119.524227 89 30755ft 425kts
07-Dec-17 10:20 45.709875 -119.356374 86 31527ft 421kts
07-Dec-17 10:21 45.705591 -119.193621 89 32216ft 422kts
07-Dec-17 10:22 45.700990 -119.027441 89 32943ft 419kts
07-Dec-17 10:23 45.674873 -118.866031 109 33445ft 432kts
07-Dec-17 10:24 45.624461 -118.711192 109 33998ft 430kts
07-Dec-17 10:25 45.574076 -118.557162 109 34406ft 431kts
07-Dec-17 10:26 45.523462 -118.403417 109 34812ft 431kts
07-Dec-17 10:27 45.474674 -118.256082 109 35179ft 432kts
07-Dec-17 10:28 45.423437 -118.102229 109 35547ft 433kts
07-Dec-17 10:29 45.371704 -117.947796 109 35930ft 432kts
07-Dec-17 10:30 45.320161 -117.794822 109 36268ft 432kts
07-Dec-17 10:31 45.268488 -117.642349 109 36599ft 432kts
07-Dec-17 10:32 45.216523 -117.489887 109 36919ft 432kts
07-Dec-17 10:33 45.164921 -117.339352 110 37187ft 432kts
07-Dec-17 10:34 45.113092 -117.189004 110 37440ft 433kts
07-Dec-17 10:35 45.060086 -117.036107 109 37672ft 434kts
07-Dec-17 10:36 45.007395 -116.884997 109 37730ft 431kts
07-Dec-17 10:37 44.957547 -116.742771 109 37736ft 430kts
07-Dec-17 10:38 44.904573 -116.592489 109 37736ft 430kts
07-Dec-17 10:39 44.852933 -116.446778 109 37728ft 430kts
07-Dec-17 10:40 44.800486 -116.299578 110 37721ft 430kts
07-Dec-17 10:41 44.758080 -116.146756 96 37734ft 420kts
07-Dec-17 10:42 44.733887 -115.986857 96 37751ft 420kts
07-Dec-17 10:43 44.709469 -115.827573 96 37748ft 419kts
07-Dec-17 10:44 44.684786 -115.668114 96 37743ft 419kts
07-Dec-17 10:45 44.659846 -115.508563 96 37740ft 419kts
07-Dec-17 10:46 44.634442 -115.347640 92 37133ft 438kts
07-Dec-17 10:47 44.608187 -115.182836 91 37161ft 438kts
07-Dec-17 10:48 44.581929 -115.017695 91 37523ft 434kts
07-Dec-17 10:49 44.553879 -114.853212 91 36168ft 432kts
07-Dec-17 10:50 44.501948 -114.698665 106 34226ft 442kts
07-Dec-17 10:51 44.465659 -114.545764 88 31674ft 415kts
07-Dec-17 10:52 44.441798 -114.386919 89 28765ft 425kts
07-Dec-17 10:53 44.417542 -114.227480 90 25637ft 438kts
07-Dec-17 10:54 44.391548 -114.058273 91 24802ft 452kts
07-Dec-17 10:55 44.365004 -113.887522 91 24797ft 450kts
07-Dec-17 10:56 44.338235 -113.717053 91 24796ft 449kts
07-Dec-17 10:57 44.311290 -113.547253 91 24797ft 449kts
07-Dec-17 10:58 44.284089 -113.377623 91 24797ft 448kts
07-Dec-17 10:59 44.257259 -113.211901 91 24797ft 449kts
07-Dec-17 11:00 44.244429 -113.043307 87 24797ft 442kts
07-Dec-17 11:01 44.216298 -112.874827 94 24686ft 454kts
07-Dec-17 11:02 44.180538 -112.706704 95 24748ft 456kts
07-Dec-17 11:03 44.146488 -112.537588 92 24590ft 451kts
07-Dec-17 11:04 44.116681 -112.368432 88 23846ft 444kts
07-Dec-17 11:05 44.090278 -112.214973 86 23129ft 428kts
07-Dec-17 11:06 44.068568 -112.054326 84 22247ft 420kts
07-Dec-17 11:07 44.047624 -111.896366 84 21324ft 416kts
07-Dec-17 11:08 44.026631 -111.739532 84 20728ft 415kts
07-Dec-17 11:09 44.005298 -111.581993 84 20724ft 415kts
07-Dec-17 11:10 43.984063 -111.427206 84 19513ft 404kts
07-Dec-17 11:11 43.962864 -111.273516 85 18703ft 410kts
07-Dec-17 11:12 43.941351 -111.119582 85 17956ft 408kts
07-Dec-17 11:13 43.919602 -110.966459 86 17333ft 407kts
07-Dec-17 11:14 43.907007 -110.808607 84 16679ft 421kts
07-Dec-17 11:15 43.903519 -110.657920 90 14038ft 409kts
07-Dec-17 11:16 43.848258 -110.540476 160 9412ft 389kts
07-Dec-17 11:17 43.766844 -110.575882 222 10289ft 273kts
07-Dec-17 11:18 43.705669 -110.631401 201 12650ft 272kts
07-Dec-17 11:19 43.634401 -110.666824 178 14002ft 275kts
07-Dec-17 11:20 43.596013 -110.626044 95 14016ft 248kts
07-Dec-17 11:21 43.634232 -110.558493 31 14025ft 238kts
07-Dec-17 11:22 43.690081 -110.509187 27 14028ft 239kts
07-Dec-17 11:23 43.750970 -110.472841 21 14028ft 238kts
07-Dec-17 11:24 43.813844 -110.450471 5 14021ft 238kts
07-Dec-17 11:25 43.875485 -110.418278 22 14027ft 238kts
07-Dec-17 11:26 43.928769 -110.446085 294 13949ft 241kts
07-Dec-17 11:27 43.927160 -110.537353 223 12106ft 271kts
07-Dec-17 11:28 43.873043 -110.603528 214 11023ft 239kts
07-Dec-17 11:29 43.819204 -110.635010 199 10599ft 185kts
07-Dec-17 11:30 43.771097 -110.658352 199 9603ft 182kts
07-Dec-17 11:31 43.723504 -110.681432 199 8680ft 180kts
07-Dec-17 11:32 43.678337 -110.703341 199 7758ft 168kts
07-Dec-17 11:33 43.634780 -110.724415 200 6847ft 165kts
07-Dec-17 11:34 43.601086 -110.740805 199 6429ft 16kts
07-Dec-17 11:35 43.601460 -110.739026 18 6429ft 15kts

Navigation Log

Ident Type
Flight plan parsing failed, navigation log unavailable